Don Carlos — 9V9243 — position and weather

sailwx.info

Track history (hours):
 
Tides and Currents Weather Stations Pressure Air Temp Water Temp Dewpoint Dewpoint Depression Visibility Wind Speed Wind Dir Waves Ship Positions

Don Carlos

Last reported at 2017-Oct-10 10:32 UTC. Time now 2017-Oct-17 12:55 UTC.
Position N 49°15' W 006°56'.

Length 228 m; draft 9.3 m.

Type: Cargo ship. MMSI: 566088000.

Date/timePositionNaut miles runAvg speedWind from/ knotsBaromVisibWave heightAir tempDewpointWater temp
2017-Oct-10 10:32N 49°15' W 006°56'117.4
2017-Oct-10 10:30N 49°15' W 006°55'817.2
2017-Oct-10 10:00N 49°18' W 006°43'5816.7
2017-Oct-10 06:31N 49°35' W 005°17'116.5
2017-Oct-10 06:29N 49°35' W 005°16'816.5
2017-Oct-10 06:00N 49°37' W 005°04'816.6
2017-Oct-10 05:30N 49°41' W 004°53'916.9
2017-Oct-10 05:00N 49°44' W 004°40'917.6
2017-Oct-10 04:30N 49°48' W 004°28'917.9
2017-Oct-10 04:00N 49°51' W 004°15'918.4
2017-Oct-10 03:30N 49°55' W 004°02'918.8
2017-Oct-10 03:00N 49°59' W 003°49'1019.1
2017-Oct-10 02:30N 50°03' W 003°36'919.0
2017-Oct-10 02:00N 50°06' W 003°22'918.5
2017-Oct-10 01:30N 50°10' W 003°09'917.7
2017-Oct-10 01:00N 50°15' W 002°57'917.1
2017-Oct-10 00:30N 50°16' W 002°43'816.2
2017-Oct-10 00:00N 50°17' W 002°31'4214.6
2017-Oct-09 21:09N 50°25' W 001°27'214.7
2017-Oct-09 21:00N 50°25' W 001°23'714.9
2017-Oct-09 20:30N 50°27' W 001°12'815.0
2017-Oct-09 20:00N 50°31' W 001°02'815.6
2017-Oct-09 19:31N 50°39' W 000°59'4 7.7
2017-Oct-09 19:00N 50°43' W 000°59'816.5
2017-Oct-09 18:30N 50°46' W 001°11'510.3
2017-Oct-09 18:01N 50°49' W 001°17'611.3
2017-Oct-09 17:30N 50°53' W 001°24'1 1.5
2017-Oct-09 17:00N 50°54' W 001°24'0 0.0
2017-Oct-09 16:31N 50°54' W 001°24'0 0.0
2017-Oct-09 16:00N 50°54' W 001°24'0 0.0
2017-Oct-09 15:30N 50°54' W 001°24'0 0.0
2017-Oct-09 14:57N 50°54' W 001°24'0 0.0
2017-Oct-09 14:30N 50°54' W 001°24'0 0.0
2017-Oct-09 14:00N 50°54' W 001°24'0 0.0
2017-Oct-09 13:30N 50°54' W 001°24'0 0.0
2017-Oct-09 12:57N 50°54' W 001°24'0 0.0
2017-Oct-09 12:30N 50°54' W 001°24'0 0.0
2017-Oct-09 11:59N 50°54' W 001°24'0 0.0
2017-Oct-09 11:29N 50°54' W 001°24'0 0.0
2017-Oct-09 10:56N 50°54' W 001°24'0 0.0
2017-Oct-09 10:29N 50°54' W 001°24'0 0.0
2017-Oct-09 09:59N 50°54' W 001°24'0 0.0
2017-Oct-09 09:29N 50°54' W 001°24'0 0.0
2017-Oct-09 08:56N 50°54' W 001°24'0 0.0
2017-Oct-09 08:29N 50°54' W 001°24'0 0.0
2017-Oct-09 07:59N 50°54' W 001°24'0 0.0
2017-Oct-09 07:29N 50°54' W 001°24'0 0.0
2017-Oct-09 06:53N 50°54' W 001°24'0 0.0
2017-Oct-09 06:29N 50°54' W 001°24'0 0.0
2017-Oct-09 05:59N 50°54' W 001°24'0 0.0
2017-Oct-09 05:23N 50°54' W 001°24'0 0.0
2017-Oct-09 04:59N 50°54' W 001°24'0 0.0
2017-Oct-09 04:29N 50°54' W 001°24'0 0.0
2017-Oct-09 03:59N 50°54' W 001°24'0 0.0
2017-Oct-09 03:20N 50°54' W 001°24'0 0.0
2017-Oct-09 02:56N 50°54' W 001°24'0 0.0
2017-Oct-09 02:29N 50°54' W 001°24'0 0.0
2017-Oct-09 01:56N 50°54' W 001°24'0 0.0
2017-Oct-09 01:29N 50°54' W 001°24'0 0.0
2017-Oct-09 00:56N 50°54' W 001°24'0 0.0
2017-Oct-09 00:29N 50°54' W 001°24'0 0.0
2017-Oct-08 23:59N 50°54' W 001°24'0 0.0
2017-Oct-08 23:29N 50°54' W 001°24'0 0.0
2017-Oct-08 22:59N 50°54' W 001°24'0 0.0
2017-Oct-08 22:29N 50°54' W 001°24'0 0.0
2017-Oct-08 21:56N 50°54' W 001°24'0 0.0
2017-Oct-08 21:29N 50°54' W 001°24'0 0.0
2017-Oct-08 20:59N 50°54' W 001°24'0 0.0
2017-Oct-08 20:29N 50°54' W 001°24'0 0.0
2017-Oct-08 19:59N 50°54' W 001°24'0 0.0
2017-Oct-08 19:29N 50°54' W 001°24'0 0.3
2017-Oct-08 19:00N 50°53' W 001°24'3 6.7
2017-Oct-08 18:30N 50°51' W 001°20'4 8.7
2017-Oct-08 18:01N 50°47' W 001°19'713.1
2017-Oct-08 17:30N 50°46' W 001°09'612.8
2017-Oct-08 17:00N 50°43' W 000°60'510.7
2017-Oct-08 16:30N 50°39' W 000°55'2 4.5
2017-Oct-08 16:01N 50°36' W 000°54'2 4.0
2017-Oct-08 15:30N 50°36' W 000°51'3 5.1
2017-Oct-08 15:00N 50°36' W 000°47'4 8.7
2017-Oct-08 14:30N 50°35' W 000°40'611.2
2017-Oct-08 14:01N 50°34' W 000°32'611.1
2017-Oct-08 13:30N 50°33' W 000°23'610.9
2017-Oct-08 13:00N 50°32' W 000°14'611.9
2017-Oct-08 12:30N 50°31' W 000°05'611.4
2017-Oct-08 12:00N 50°32' E 000°03'611.2
2017-Oct-08 11:30N 50°34' E 000°12'510.6
2017-Oct-08 11:00N 50°35' E 000°20'612.1
2017-Oct-08 10:30N 50°36' E 000°29'713.3
2017-Oct-08 10:01N 50°39' E 000°39'714.2
2017-Oct-08 09:30N 50°43' E 000°48'815.5
2017-Oct-08 09:00N 50°48' E 000°58'816.7
2017-Oct-08 08:30N 50°53' E 001°08'917.7
2017-Oct-08 08:00N 50°59' E 001°18'918.2
2017-Oct-08 07:30N 51°05' E 001°30'917.2
2017-Oct-08 07:00N 51°10' E 001°40'816.7
2017-Oct-08 06:30N 51°16' E 001°49'815.6
2017-Oct-08 06:00N 51°23' E 001°57'612.3
2017-Oct-08 05:30N 51°23' E 002°06'715.0
2017-Oct-08 05:00N 51°20' E 002°17'714.3
2017-Oct-08 04:30N 51°23' E 002°28'714.2
2017-Oct-08 04:00N 51°23' E 002°40'5 9.5
2017-Oct-08 03:30N 51°25' E 002°47'612.9
2017-Oct-08 03:00N 51°25' E 002°57'714.5
2017-Oct-08 02:30N 51°24' E 003°08'4 8.8
2017-Oct-08 02:00N 51°20' E 003°13'0 0.1
2017-Oct-08 01:30N 51°20' E 003°13'0 0.0
2017-Oct-08 00:58N 51°20' E 003°13'1 2.2
2017-Oct-08 00:31N 51°19' E 003°13'0 0.2
2017-Oct-07 23:58N 51°19' E 003°14'0 0.0
2017-Oct-07 23:28N 51°19' E 003°14'0 0.0
2017-Oct-07 22:58N 51°19' E 003°14'0 0.0
2017-Oct-07 22:28N 51°19' E 003°14'0 0.0
2017-Oct-07 21:58N 51°19' E 003°14'0 0.0
2017-Oct-07 21:28N 51°19' E 003°14'0 0.0
2017-Oct-07 20:58N 51°19' E 003°14'0 0.0
2017-Oct-07 20:28N 51°19' E 003°14'0 0.0
2017-Oct-07 19:58N 51°19' E 003°14'0 0.0
2017-Oct-07 19:28N 51°19' E 003°14'0 0.0
2017-Oct-07 18:58N 51°19' E 003°14'0 0.0
2017-Oct-07 18:28N 51°19' E 003°14'0 0.0
2017-Oct-07 17:58N 51°19' E 003°14'0 0.0
2017-Oct-07 17:28N 51°19' E 003°14'0 0.0
2017-Oct-07 16:58N 51°19' E 003°14'0 0.0
2017-Oct-07 16:28N 51°19' E 003°14'0 0.0
2017-Oct-07 15:58N 51°19' E 003°14'0 0.0
2017-Oct-07 15:28N 51°19' E 003°14'0 0.0
2017-Oct-07 14:58N 51°19' E 003°14'0 0.0
2017-Oct-07 14:28N 51°19' E 003°14'0 0.0
2017-Oct-07 13:58N 51°19' E 003°14'0 0.0
2017-Oct-07 13:28N 51°19' E 003°14'0 0.0
2017-Oct-07 12:58N 51°19' E 003°14'0 0.0
2017-Oct-07 12:28N 51°19' E 003°14'0 0.0
2017-Oct-07 11:58N 51°19' E 003°14'0 0.0
2017-Oct-07 11:28N 51°19' E 003°14'0 0.0
2017-Oct-07 10:58N 51°19' E 003°14'0 0.0
2017-Oct-07 10:28N 51°19' E 003°14'0 0.0
2017-Oct-07 09:58N 51°19' E 003°14'0 0.0
2017-Oct-07 09:28N 51°19' E 003°14'0 0.0
2017-Oct-07 09:01N 51°19' E 003°14'0 0.0
2017-Oct-07 08:31N 51°19' E 003°14'0 0.0
2017-Oct-07 08:00N 51°19' E 003°14'0 0.0
2017-Oct-07 07:30N 51°19' E 003°14'0 0.0
2017-Oct-07 07:00N 51°19' E 003°14'0 0.0
2017-Oct-07 06:30N 51°19' E 003°14'0 0.0
2017-Oct-07 06:00N 51°19' E 003°14'0 0.8
2017-Oct-07 05:30N 51°19' E 003°13'1 1.2
2017-Oct-07 05:00N 51°20' E 003°13'0 0.0
2017-Oct-07 04:30N 51°20' E 003°13'0 0.0
2017-Oct-07 04:00N 51°20' E 003°13'1 1.4
2017-Oct-07 03:30N 51°21' E 003°13'5 9.3
2017-Oct-07 03:00N 51°24' E 003°07'917.1
2017-Oct-07 02:30N 51°25' E 002°54'713.6
2017-Oct-07 02:00N 51°23' E 002°43'4 7.4
2017-Oct-07 01:30N 51°22' E 002°38'4 7.3
2017-Oct-07 01:00N 51°22' E 002°32'510.2
2017-Oct-07 00:30N 51°27' E 002°33'612.6
2017-Oct-07 00:00N 51°33' E 002°37'713.6
2017-Oct-06 23:30N 51°40' E 002°39'9316.7
2017-Oct-06 17:57N 52°58' E 003°60'1216.3
2017-Oct-06 17:11N 53°06' E 004°15'316.2
2017-Oct-06 17:00N 53°08' E 004°19'1115.5
2017-Oct-06 16:17N 53°17' E 004°29'616.4
2017-Oct-06 15:56N 53°23' E 004°32'816.6
2017-Oct-06 15:28N 53°30' E 004°36'1017.2
2017-Oct-06 14:54N 53°39' E 004°42'30915.8
2017-Oct-05 19:22N 57°50' E 010°05'617.0
2017-Oct-05 19:00N 57°51' E 010°16'816.8
2017-Oct-05 18:30N 57°52' E 010°31'816.0
2017-Oct-05 17:59N 57°52' E 010°47'817.1
2017-Oct-05 17:30N 57°47' E 010°60'817.0
2017-Oct-05 17:00N 57°42' E 011°13'1510.2
2017-Oct-05 15:31N 57°40' E 011°41'510.7
2017-Oct-05 15:01N 57°41' E 011°51'1 1.1
2017-Oct-05 14:31N 57°41' E 011°52'0 0.0
2017-Oct-05 14:00N 57°41' E 011°52'0 0.0
2017-Oct-05 13:30N 57°41' E 011°52'0 0.0
2017-Oct-05 13:00N 57°41' E 011°52'0 0.0
2017-Oct-05 12:30N 57°41' E 011°52'0 0.0
2017-Oct-05 12:00N 57°41' E 011°52'0 0.0
2017-Oct-05 11:30N 57°41' E 011°52'0 0.0
2017-Oct-05 10:57N 57°41' E 011°52'0 0.0
2017-Oct-05 10:30N 57°41' E 011°52'0 0.0
2017-Oct-05 10:00N 57°41' E 011°52'0 0.0
2017-Oct-05 09:30N 57°41' E 011°52'0 0.0
2017-Oct-05 09:00N 57°41' E 011°52'0 0.0
2017-Oct-05 08:30N 57°41' E 011°52'0 0.0
2017-Oct-05 08:00N 57°41' E 011°52'0 0.0
2017-Oct-05 07:30N 57°41' E 011°52'0 0.0
2017-Oct-05 07:00N 57°41' E 011°52'0 0.0
2017-Oct-05 06:30N 57°41' E 011°52'0 0.0
2017-Oct-05 06:00N 57°41' E 011°52'0 0.0
2017-Oct-05 05:30N 57°41' E 011°52'0 0.0
2017-Oct-05 05:00N 57°41' E 011°52'0 0.0
2017-Oct-05 04:30N 57°41' E 011°52'0 0.0
2017-Oct-05 03:59N 57°41' E 011°52'0 0.0
2017-Oct-05 03:29N 57°41' E 011°52'0 0.0
2017-Oct-05 02:59N 57°41' E 011°52'0 0.0
2017-Oct-05 02:29N 57°41' E 011°52'0 0.0
2017-Oct-05 01:59N 57°41' E 011°52'0 0.0
2017-Oct-05 01:29N 57°41' E 011°52'0 0.0
2017-Oct-05 00:59N 57°41' E 011°52'0 0.0
2017-Oct-05 00:29N 57°41' E 011°52'0 0.0
2017-Oct-04 23:59N 57°41' E 011°52'0 0.0
2017-Oct-04 23:29N 57°41' E 011°52'0 0.0
2017-Oct-04 22:59N 57°41' E 011°52'0 0.0
2017-Oct-04 22:29N 57°41' E 011°52'0 0.0
2017-Oct-04 21:59N 57°41' E 011°52'0 0.0
2017-Oct-04 21:29N 57°41' E 011°52'0 0.0
2017-Oct-04 20:59N 57°41' E 011°52'0 0.0
2017-Oct-04 20:29N 57°41' E 011°52'0 0.0
2017-Oct-04 19:59N 57°41' E 011°52'0 0.0
2017-Oct-04 19:29N 57°41' E 011°52'0 0.0
2017-Oct-04 18:59N 57°41' E 011°52'0 0.0
2017-Oct-04 18:29N 57°41' E 011°52'0 0.0
2017-Oct-04 17:59N 57°41' E 011°52'0 0.0
2017-Oct-04 17:29N 57°41' E 011°52'0 0.0
2017-Oct-04 16:59N 57°41' E 011°52'0 0.0
2017-Oct-04 16:29N 57°41' E 011°52'0 0.0
2017-Oct-04 15:59N 57°41' E 011°52'0 0.0
2017-Oct-04 15:29N 57°41' E 011°52'0 0.0
2017-Oct-04 14:59N 57°41' E 011°52'0 0.0
2017-Oct-04 14:29N 57°41' E 011°52'0 0.0
2017-Oct-04 13:59N 57°41' E 011°52'0 0.0
2017-Oct-04 13:29N 57°41' E 011°52'0 0.0
2017-Oct-04 12:59N 57°41' E 011°52'0 0.0
2017-Oct-04 12:29N 57°41' E 011°52'0 0.0
2017-Oct-04 11:59N 57°41' E 011°52'0 0.0
2017-Oct-04 11:29N 57°41' E 011°52'0 0.0
2017-Oct-04 10:59N 57°41' E 011°52'0 0.0
2017-Oct-04 10:29N 57°41' E 011°52'0 0.0
2017-Oct-04 09:59N 57°41' E 011°52'0 0.0
2017-Oct-04 09:29N 57°41' E 011°52'0 0.0
2017-Oct-04 08:59N 57°41' E 011°52'0 0.0
2017-Oct-04 08:29N 57°41' E 011°52'0 0.0
2017-Oct-04 08:00N 57°41' E 011°52'0 0.6
2017-Oct-04 07:30N 57°41' E 011°52'3 6.4
2017-Oct-04 07:01N 57°40' E 011°46'612.0
2017-Oct-04 06:30N 57°35' E 011°39'2 4.6
2017-Oct-04 06:00N 57°34' E 011°35'0 0.9
2017-Oct-04 05:30N 57°34' E 011°36'2 3.5
2017-Oct-04 05:00N 57°35' E 011°38'4 8.3
2017-Oct-04 04:31N 57°39' E 011°42'4 7.9
2017-Oct-04 04:01N 57°41' E 011°48'2 4.6
2017-Oct-04 03:30N 57°41' E 011°52'1 2.1
2017-Oct-04 03:00N 57°41' E 011°50'4 8.9
2017-Oct-04 02:31N 57°39' E 011°43'510.5
2017-Oct-04 02:01N 57°35' E 011°37'510.1
2017-Oct-04 01:31N 57°36' E 011°28'4 7.6
2017-Oct-04 01:00N 57°39' E 011°22'5 9.0
2017-Oct-04 00:30N 57°42' E 011°17'510.0
2017-Oct-04 00:00N 57°45' E 011°10'611.1
2017-Oct-03 23:30N 57°50' E 011°04'611.8
2017-Oct-03 22:59N 57°54' E 010°56'510.5
2017-Oct-03 22:29N 57°57' E 010°47'511.3
2017-Oct-03 22:00N 57°56' E 010°37'612.0
2017-Oct-03 21:30N 57°56' E 010°25'612.8
2017-Oct-03 21:00N 57°56' E 010°14'4816.4
2017-Oct-03 18:05N 57°48' E 008°45'11314.9
2017-Oct-03 10:31N 56°03' E 007°29'013.5
2017-Oct-03 10:30N 56°03' E 007°29'714.6
2017-Oct-03 10:00N 55°56' E 007°26'714.7
2017-Oct-03 09:30N 55°48' E 007°23'914.9
2017-Oct-03 08:54N 55°39' E 007°20'514.2
2017-Oct-03 08:31N 55°34' E 007°19'713.7
2017-Oct-03 08:00N 55°27' E 007°19'713.5
2017-Oct-03 07:31N 55°20' E 007°20'713.9
2017-Oct-03 07:01N 55°14' E 007°21'714.1
2017-Oct-03 06:31N 55°07' E 007°23'714.4
2017-Oct-03 06:00N 54°59' E 007°22'714.2
2017-Oct-03 05:31N 54°52' E 007°22'714.2
2017-Oct-03 05:01N 54°45' E 007°23'714.3
2017-Oct-03 04:30N 54°38' E 007°23'3114.1
2017-Oct-03 02:19N 54°08' E 007°32'414.1
2017-Oct-03 02:01N 54°04' E 007°36'714.2
2017-Oct-03 01:30N 53°58' E 007°42'510.2
2017-Oct-03 01:00N 53°53' E 007°47'612.0
2017-Oct-03 00:30N 53°52' E 007°56'815.7
2017-Oct-03 00:00N 53°48' E 008°08'917.0
2017-Oct-02 23:30N 53°42' E 008°19'816.0
2017-Oct-02 23:01N 53°37' E 008°29'4 8.1
2017-Oct-02 22:30N 53°34' E 008°33'0 0.6
2017-Oct-02 22:00N 53°34' E 008°33'0 0.0
2017-Oct-02 21:30N 53°34' E 008°33'0 0.9
2017-Oct-02 21:01N 53°35' E 008°33'0 0.0
2017-Oct-02 20:31N 53°35' E 008°33'0 0.0
2017-Oct-02 19:59N 53°35' E 008°33'0 0.0
2017-Oct-02 19:29N 53°35' E 008°33'0 0.0
2017-Oct-02 18:59N 53°35' E 008°33'0 0.0
2017-Oct-02 18:26N 53°35' E 008°33'0 0.0
2017-Oct-02 17:59N 53°35' E 008°33'0 0.0
2017-Oct-02 17:29N 53°35' E 008°33'0 0.0
2017-Oct-02 16:59N 53°35' E 008°33'0 0.0
2017-Oct-02 16:29N 53°35' E 008°33'0 0.0
2017-Oct-02 15:59N 53°35' E 008°33'0 0.0
2017-Oct-02 15:29N 53°35' E 008°33'0 0.0
2017-Oct-02 14:59N 53°35' E 008°33'0 0.0
2017-Oct-02 14:29N 53°35' E 008°33'0 0.0
2017-Oct-02 13:59N 53°35' E 008°33'0 0.0
2017-Oct-02 13:29N 53°35' E 008°33'0 0.0
2017-Oct-02 12:59N 53°35' E 008°33'0 0.0
2017-Oct-02 12:29N 53°35' E 008°33'0 0.0
2017-Oct-02 11:59N 53°35' E 008°33'0 0.0
2017-Oct-02 11:26N 53°35' E 008°33'0 0.0
2017-Oct-02 10:59N 53°35' E 008°33'0 0.0
2017-Oct-02 10:29N 53°35' E 008°33'0 0.0
2017-Oct-02 09:56N 53°35' E 008°33'0 0.0
2017-Oct-02 09:29N 53°35' E 008°33'0 0.0
2017-Oct-02 08:59N 53°35' E 008°33'0 0.0
2017-Oct-02 08:29N 53°35' E 008°33'0 0.0
2017-Oct-02 07:59N 53°35' E 008°33'0 0.0
2017-Oct-02 07:29N 53°35' E 008°33'0 0.0
2017-Oct-02 06:59N 53°35' E 008°33'0 0.0
2017-Oct-02 06:29N 53°35' E 008°33'0 0.0
2017-Oct-02 05:59N 53°35' E 008°33'0 0.0
2017-Oct-02 05:29N 53°35' E 008°33'0 0.0
2017-Oct-02 04:59N 53°35' E 008°33'0 0.0
2017-Oct-02 04:29N 53°35' E 008°33'0 0.0
2017-Oct-02 03:59N 53°35' E 008°33'0 0.0
2017-Oct-02 03:29N 53°35' E 008°33'0 0.0
2017-Oct-02 02:59N 53°35' E 008°33'0 0.0
2017-Oct-02 02:29N 53°35' E 008°33'0 0.0
2017-Oct-02 01:59N 53°35' E 008°33'0 0.0
2017-Oct-02 01:29N 53°35' E 008°33'0 0.0
2017-Oct-02 00:59N 53°35' E 008°33'0 0.0
2017-Oct-02 00:29N 53°35' E 008°33'0 0.0
2017-Oct-01 23:59N 53°35' E 008°33'0 0.0
2017-Oct-01 23:28N 53°35' E 008°33'0 0.0
2017-Oct-01 22:58N 53°35' E 008°33'0 0.0
2017-Oct-01 22:28N 53°35' E 008°33'0 0.0
2017-Oct-01 21:58N 53°35' E 008°33'0 0.0
2017-Oct-01 21:28N 53°35' E 008°33'0 0.0
2017-Oct-01 20:58N 53°35' E 008°33'0 0.0
2017-Oct-01 20:28N 53°35' E 008°33'0 0.0
2017-Oct-01 19:58N 53°35' E 008°33'0 0.0
2017-Oct-01 19:28N 53°35' E 008°33'0 0.0
2017-Oct-01 18:58N 53°35' E 008°33'0 0.0
2017-Oct-01 18:28N 53°35' E 008°33'0 0.0
2017-Oct-01 17:58N 53°35' E 008°33'0 0.0
2017-Oct-01 17:28N 53°35' E 008°33'0 0.0
2017-Oct-01 16:59N 53°35' E 008°33'0 0.0
2017-Oct-01 16:28N 53°35' E 008°33'0 0.0
2017-Oct-01 15:58N 53°35' E 008°33'0 0.0
2017-Oct-01 15:28N 53°35' E 008°33'0 0.0
2017-Oct-01 14:58N 53°35' E 008°33'0 0.0
2017-Oct-01 14:28N 53°35' E 008°33'0 0.0
2017-Oct-01 13:58N 53°35' E 008°33'0 0.0
2017-Oct-01 13:28N 53°35' E 008°33'0 0.0
2017-Oct-01 12:58N 53°35' E 008°33'0 0.0
2017-Oct-01 12:28N 53°35' E 008°33'0 0.0
2017-Oct-01 11:58N 53°35' E 008°33'0 0.0
2017-Oct-01 11:28N 53°35' E 008°33'0 0.0
2017-Oct-01 10:58N 53°35' E 008°33'0 0.0
2017-Oct-01 10:28N 53°35' E 008°33'0 0.0
2017-Oct-01 09:58N 53°35' E 008°33'0 0.0
2017-Oct-01 09:25N 53°35' E 008°33'0 0.0
2017-Oct-01 08:58N 53°35' E 008°33'0 0.0
2017-Oct-01 08:28N 53°35' E 008°33'0 0.0
2017-Oct-01 07:58N 53°35' E 008°33'0 0.0
2017-Oct-01 07:28N 53°35' E 008°33'0 0.0
2017-Oct-01 06:58N 53°35' E 008°33'0 0.0
2017-Oct-01 06:28N 53°35' E 008°33'0 0.0
2017-Oct-01 05:58N 53°35' E 008°33'0 0.0
2017-Oct-01 05:28N 53°35' E 008°33'0 0.0
2017-Oct-01 04:58N 53°35' E 008°33'0 0.0
2017-Oct-01 04:28N 53°35' E 008°33'0 0.0
2017-Oct-01 03:58N 53°35' E 008°33'0 0.0
2017-Oct-01 03:28N 53°35' E 008°33'0 0.0
2017-Oct-01 02:58N 53°35' E 008°33'  
Track history (hours):
 
Tides and Currents Weather Stations Pressure Air Temp Water Temp Dewpoint Dewpoint Depression Visibility Wind Speed Wind Dir Waves Ship Positions

Don Carlos

Last reported at 2017-Oct-10 10:32 UTC. Time now 2017-Oct-17 12:55 UTC.
Position N 49°15' W 006°56'.

Length 228 m; draft 9.3 m.

Type: Cargo ship. MMSI: 566088000.

Date/timePositionNaut miles runAvg speedWind from/ knotsBaromVisibWave heightAir tempDewpointWater temp
2017-Oct-10 10:32N 49°15' W 006°56'117.4
2017-Oct-10 10:30N 49°15' W 006°55'817.2
2017-Oct-10 10:00N 49°18' W 006°43'5816.7
2017-Oct-10 06:31N 49°35' W 005°17'116.5
2017-Oct-10 06:29N 49°35' W 005°16'816.5
2017-Oct-10 06:00N 49°37' W 005°04'816.6
2017-Oct-10 05:30N 49°41' W 004°53'916.9
2017-Oct-10 05:00N 49°44' W 004°40'917.6
2017-Oct-10 04:30N 49°48' W 004°28'917.9
2017-Oct-10 04:00N 49°51' W 004°15'918.4
2017-Oct-10 03:30N 49°55' W 004°02'918.8
2017-Oct-10 03:00N 49°59' W 003°49'1019.1
2017-Oct-10 02:30N 50°03' W 003°36'919.0
2017-Oct-10 02:00N 50°06' W 003°22'918.5
2017-Oct-10 01:30N 50°10' W 003°09'917.7
2017-Oct-10 01:00N 50°15' W 002°57'917.1
2017-Oct-10 00:30N 50°16' W 002°43'816.2
2017-Oct-10 00:00N 50°17' W 002°31'4214.6
2017-Oct-09 21:09N 50°25' W 001°27'214.7
2017-Oct-09 21:00N 50°25' W 001°23'714.9
2017-Oct-09 20:30N 50°27' W 001°12'815.0
2017-Oct-09 20:00N 50°31' W 001°02'815.6
2017-Oct-09 19:31N 50°39' W 000°59'4 7.7
2017-Oct-09 19:00N 50°43' W 000°59'816.5
2017-Oct-09 18:30N 50°46' W 001°11'510.3
2017-Oct-09 18:01N 50°49' W 001°17'611.3
2017-Oct-09 17:30N 50°53' W 001°24'1 1.5
2017-Oct-09 17:00N 50°54' W 001°24'0 0.0
2017-Oct-09 16:31N 50°54' W 001°24'0 0.0
2017-Oct-09 16:00N 50°54' W 001°24'0 0.0
2017-Oct-09 15:30N 50°54' W 001°24'0 0.0
2017-Oct-09 14:57N 50°54' W 001°24'0 0.0
2017-Oct-09 14:30N 50°54' W 001°24'0 0.0
2017-Oct-09 14:00N 50°54' W 001°24'0 0.0
2017-Oct-09 13:30N 50°54' W 001°24'0 0.0
2017-Oct-09 12:57N 50°54' W 001°24'0 0.0
2017-Oct-09 12:30N 50°54' W 001°24'0 0.0
2017-Oct-09 11:59N 50°54' W 001°24'0 0.0
2017-Oct-09 11:29N 50°54' W 001°24'0 0.0
2017-Oct-09 10:56N 50°54' W 001°24'0 0.0
2017-Oct-09 10:29N 50°54' W 001°24'0 0.0
2017-Oct-09 09:59N 50°54' W 001°24'0 0.0
2017-Oct-09 09:29N 50°54' W 001°24'0 0.0
2017-Oct-09 08:56N 50°54' W 001°24'0 0.0
2017-Oct-09 08:29N 50°54' W 001°24'0 0.0
2017-Oct-09 07:59N 50°54' W 001°24'0 0.0
2017-Oct-09 07:29N 50°54' W 001°24'0 0.0
2017-Oct-09 06:53N 50°54' W 001°24'0 0.0
2017-Oct-09 06:29N 50°54' W 001°24'0 0.0
2017-Oct-09 05:59N 50°54' W 001°24'0 0.0
2017-Oct-09 05:23N 50°54' W 001°24'0 0.0
2017-Oct-09 04:59N 50°54' W 001°24'0 0.0
2017-Oct-09 04:29N 50°54' W 001°24'0 0.0
2017-Oct-09 03:59N 50°54' W 001°24'0 0.0
2017-Oct-09 03:20N 50°54' W 001°24'0 0.0
2017-Oct-09 02:56N 50°54' W 001°24'0 0.0
2017-Oct-09 02:29N 50°54' W 001°24'0 0.0
2017-Oct-09 01:56N 50°54' W 001°24'0 0.0
2017-Oct-09 01:29N 50°54' W 001°24'0 0.0
2017-Oct-09 00:56N 50°54' W 001°24'0 0.0
2017-Oct-09 00:29N 50°54' W 001°24'0 0.0
2017-Oct-08 23:59N 50°54' W 001°24'0 0.0
2017-Oct-08 23:29N 50°54' W 001°24'0 0.0
2017-Oct-08 22:59N 50°54' W 001°24'0 0.0
2017-Oct-08 22:29N 50°54' W 001°24'0 0.0
2017-Oct-08 21:56N 50°54' W 001°24'0 0.0
2017-Oct-08 21:29N 50°54' W 001°24'0 0.0
2017-Oct-08 20:59N 50°54' W 001°24'0 0.0
2017-Oct-08 20:29N 50°54' W 001°24'0 0.0
2017-Oct-08 19:59N 50°54' W 001°24'0 0.0
2017-Oct-08 19:29N 50°54' W 001°24'0 0.3
2017-Oct-08 19:00N 50°53' W 001°24'3 6.7
2017-Oct-08 18:30N 50°51' W 001°20'4 8.7
2017-Oct-08 18:01N 50°47' W 001°19'713.1
2017-Oct-08 17:30N 50°46' W 001°09'612.8
2017-Oct-08 17:00N 50°43' W 000°60'510.7
2017-Oct-08 16:30N 50°39' W 000°55'2 4.5
2017-Oct-08 16:01N 50°36' W 000°54'2 4.0
2017-Oct-08 15:30N 50°36' W 000°51'3 5.1
2017-Oct-08 15:00N 50°36' W 000°47'4 8.7
2017-Oct-08 14:30N 50°35' W 000°40'611.2
2017-Oct-08 14:01N 50°34' W 000°32'611.1
2017-Oct-08 13:30N 50°33' W 000°23'610.9
2017-Oct-08 13:00N 50°32' W 000°14'611.9
2017-Oct-08 12:30N 50°31' W 000°05'611.4
2017-Oct-08 12:00N 50°32' E 000°03'611.2
2017-Oct-08 11:30N 50°34' E 000°12'510.6
2017-Oct-08 11:00N 50°35' E 000°20'612.1
2017-Oct-08 10:30N 50°36' E 000°29'713.3
2017-Oct-08 10:01N 50°39' E 000°39'714.2
2017-Oct-08 09:30N 50°43' E 000°48'815.5
2017-Oct-08 09:00N 50°48' E 000°58'816.7
2017-Oct-08 08:30N 50°53' E 001°08'917.7
2017-Oct-08 08:00N 50°59' E 001°18'918.2
2017-Oct-08 07:30N 51°05' E 001°30'917.2
2017-Oct-08 07:00N 51°10' E 001°40'816.7
2017-Oct-08 06:30N 51°16' E 001°49'815.6
2017-Oct-08 06:00N 51°23' E 001°57'612.3
2017-Oct-08 05:30N 51°23' E 002°06'715.0
2017-Oct-08 05:00N 51°20' E 002°17'714.3
2017-Oct-08 04:30N 51°23' E 002°28'714.2
2017-Oct-08 04:00N 51°23' E 002°40'5 9.5
2017-Oct-08 03:30N 51°25' E 002°47'612.9
2017-Oct-08 03:00N 51°25' E 002°57'714.5
2017-Oct-08 02:30N 51°24' E 003°08'4 8.8
2017-Oct-08 02:00N 51°20' E 003°13'0 0.1
2017-Oct-08 01:30N 51°20' E 003°13'0 0.0
2017-Oct-08 00:58N 51°20' E 003°13'1 2.2
2017-Oct-08 00:31N 51°19' E 003°13'0 0.2
2017-Oct-07 23:58N 51°19' E 003°14'0 0.0
2017-Oct-07 23:28N 51°19' E 003°14'0 0.0
2017-Oct-07 22:58N 51°19' E 003°14'0 0.0
2017-Oct-07 22:28N 51°19' E 003°14'0 0.0
2017-Oct-07 21:58N 51°19' E 003°14'0 0.0
2017-Oct-07 21:28N 51°19' E 003°14'0 0.0
2017-Oct-07 20:58N 51°19' E 003°14'0 0.0
2017-Oct-07 20:28N 51°19' E 003°14'0 0.0
2017-Oct-07 19:58N 51°19' E 003°14'0 0.0
2017-Oct-07 19:28N 51°19' E 003°14'0 0.0
2017-Oct-07 18:58N 51°19' E 003°14'0 0.0
2017-Oct-07 18:28N 51°19' E 003°14'0 0.0
2017-Oct-07 17:58N 51°19' E 003°14'0 0.0
2017-Oct-07 17:28N 51°19' E 003°14'0 0.0
2017-Oct-07 16:58N 51°19' E 003°14'0 0.0
2017-Oct-07 16:28N 51°19' E 003°14'0 0.0
2017-Oct-07 15:58N 51°19' E 003°14'0 0.0
2017-Oct-07 15:28N 51°19' E 003°14'0 0.0
2017-Oct-07 14:58N 51°19' E 003°14'0 0.0
2017-Oct-07 14:28N 51°19' E 003°14'0 0.0
2017-Oct-07 13:58N 51°19' E 003°14'0 0.0
2017-Oct-07 13:28N 51°19' E 003°14'0 0.0
2017-Oct-07 12:58N 51°19' E 003°14'0 0.0
2017-Oct-07 12:28N 51°19' E 003°14'0 0.0
2017-Oct-07 11:58N 51°19' E 003°14'0 0.0
2017-Oct-07 11:28N 51°19' E 003°14'0 0.0
2017-Oct-07 10:58N 51°19' E 003°14'0 0.0
2017-Oct-07 10:28N 51°19' E 003°14'0 0.0
2017-Oct-07 09:58N 51°19' E 003°14'0 0.0
2017-Oct-07 09:28N 51°19' E 003°14'0 0.0
2017-Oct-07 09:01N 51°19' E 003°14'0 0.0
2017-Oct-07 08:31N 51°19' E 003°14'0 0.0
2017-Oct-07 08:00N 51°19' E 003°14'0 0.0
2017-Oct-07 07:30N 51°19' E 003°14'0 0.0
2017-Oct-07 07:00N 51°19' E 003°14'0 0.0
2017-Oct-07 06:30N 51°19' E 003°14'0 0.0
2017-Oct-07 06:00N 51°19' E 003°14'0 0.8
2017-Oct-07 05:30N 51°19' E 003°13'1 1.2
2017-Oct-07 05:00N 51°20' E 003°13'0 0.0
2017-Oct-07 04:30N 51°20' E 003°13'0 0.0
2017-Oct-07 04:00N 51°20' E 003°13'1 1.4
2017-Oct-07 03:30N 51°21' E 003°13'5 9.3
2017-Oct-07 03:00N 51°24' E 003°07'917.1
2017-Oct-07 02:30N 51°25' E 002°54'713.6
2017-Oct-07 02:00N 51°23' E 002°43'4 7.4
2017-Oct-07 01:30N 51°22' E 002°38'4 7.3
2017-Oct-07 01:00N 51°22' E 002°32'510.2
2017-Oct-07 00:30N 51°27' E 002°33'612.6
2017-Oct-07 00:00N 51°33' E 002°37'713.6
2017-Oct-06 23:30N 51°40' E 002°39'9316.7
2017-Oct-06 17:57N 52°58' E 003°60'1216.3
2017-Oct-06 17:11N 53°06' E 004°15'316.2
2017-Oct-06 17:00N 53°08' E 004°19'1115.5
2017-Oct-06 16:17N 53°17' E 004°29'616.4
2017-Oct-06 15:56N 53°23' E 004°32'816.6
2017-Oct-06 15:28N 53°30' E 004°36'1017.2
2017-Oct-06 14:54N 53°39' E 004°42'30915.8
2017-Oct-05 19:22N 57°50' E 010°05'617.0
2017-Oct-05 19:00N 57°51' E 010°16'816.8
2017-Oct-05 18:30N 57°52' E 010°31'816.0
2017-Oct-05 17:59N 57°52' E 010°47'817.1
2017-Oct-05 17:30N 57°47' E 010°60'817.0
2017-Oct-05 17:00N 57°42' E 011°13'1510.2
2017-Oct-05 15:31N 57°40' E 011°41'510.7
2017-Oct-05 15:01N 57°41' E 011°51'1 1.1
2017-Oct-05 14:31N 57°41' E 011°52'0 0.0
2017-Oct-05 14:00N 57°41' E 011°52'0 0.0
2017-Oct-05 13:30N 57°41' E 011°52'0 0.0
2017-Oct-05 13:00N 57°41' E 011°52'0 0.0
2017-Oct-05 12:30N 57°41' E 011°52'0 0.0
2017-Oct-05 12:00N 57°41' E 011°52'0 0.0
2017-Oct-05 11:30N 57°41' E 011°52'0 0.0
2017-Oct-05 10:57N 57°41' E 011°52'0 0.0
2017-Oct-05 10:30N 57°41' E 011°52'0 0.0
2017-Oct-05 10:00N 57°41' E 011°52'0 0.0
2017-Oct-05 09:30N 57°41' E 011°52'0 0.0
2017-Oct-05 09:00N 57°41' E 011°52'0 0.0
2017-Oct-05 08:30N 57°41' E 011°52'0 0.0
2017-Oct-05 08:00N 57°41' E 011°52'0 0.0
2017-Oct-05 07:30N 57°41' E 011°52'0 0.0
2017-Oct-05 07:00N 57°41' E 011°52'0 0.0
2017-Oct-05 06:30N 57°41' E 011°52'0 0.0
2017-Oct-05 06:00N 57°41' E 011°52'0 0.0
2017-Oct-05 05:30N 57°41' E 011°52'0 0.0
2017-Oct-05 05:00N 57°41' E 011°52'0 0.0
2017-Oct-05 04:30N 57°41' E 011°52'0 0.0
2017-Oct-05 03:59N 57°41' E 011°52'0 0.0
2017-Oct-05 03:29N 57°41' E 011°52'0 0.0
2017-Oct-05 02:59N 57°41' E 011°52'0 0.0
2017-Oct-05 02:29N 57°41' E 011°52'0 0.0
2017-Oct-05 01:59N 57°41' E 011°52'0 0.0
2017-Oct-05 01:29N 57°41' E 011°52'0 0.0
2017-Oct-05 00:59N 57°41' E 011°52'0 0.0
2017-Oct-05 00:29N 57°41' E 011°52'0 0.0
2017-Oct-04 23:59N 57°41' E 011°52'0 0.0
2017-Oct-04 23:29N 57°41' E 011°52'0 0.0
2017-Oct-04 22:59N 57°41' E 011°52'0 0.0
2017-Oct-04 22:29N 57°41' E 011°52'0 0.0
2017-Oct-04 21:59N 57°41' E 011°52'0 0.0
2017-Oct-04 21:29N 57°41' E 011°52'0 0.0
2017-Oct-04 20:59N 57°41' E 011°52'0 0.0
2017-Oct-04 20:29N 57°41' E 011°52'0 0.0
2017-Oct-04 19:59N 57°41' E 011°52'0 0.0
2017-Oct-04 19:29N 57°41' E 011°52'0 0.0
2017-Oct-04 18:59N 57°41' E 011°52'0 0.0
2017-Oct-04 18:29N 57°41' E 011°52'0 0.0
2017-Oct-04 17:59N 57°41' E 011°52'0 0.0
2017-Oct-04 17:29N 57°41' E 011°52'0 0.0
2017-Oct-04 16:59N 57°41' E 011°52'0 0.0
2017-Oct-04 16:29N 57°41' E 011°52'0 0.0
2017-Oct-04 15:59N 57°41' E 011°52'0 0.0
2017-Oct-04 15:29N 57°41' E 011°52'0 0.0
2017-Oct-04 14:59N 57°41' E 011°52'0 0.0
2017-Oct-04 14:29N 57°41' E 011°52'0 0.0
2017-Oct-04 13:59N 57°41' E 011°52'0 0.0
2017-Oct-04 13:29N 57°41' E 011°52'0 0.0
2017-Oct-04 12:59N 57°41' E 011°52'0 0.0
2017-Oct-04 12:29N 57°41' E 011°52'0 0.0
2017-Oct-04 11:59N 57°41' E 011°52'0 0.0
2017-Oct-04 11:29N 57°41' E 011°52'0 0.0
2017-Oct-04 10:59N 57°41' E 011°52'0 0.0
2017-Oct-04 10:29N 57°41' E 011°52'0 0.0
2017-Oct-04 09:59N 57°41' E 011°52'0 0.0
2017-Oct-04 09:29N 57°41' E 011°52'0 0.0
2017-Oct-04 08:59N 57°41' E 011°52'0 0.0
2017-Oct-04 08:29N 57°41' E 011°52'0 0.0
2017-Oct-04 08:00N 57°41' E 011°52'0 0.6
2017-Oct-04 07:30N 57°41' E 011°52'3 6.4
2017-Oct-04 07:01N 57°40' E 011°46'612.0
2017-Oct-04 06:30N 57°35' E 011°39'2 4.6
2017-Oct-04 06:00N 57°34' E 011°35'0 0.9
2017-Oct-04 05:30N 57°34' E 011°36'2 3.5
2017-Oct-04 05:00N 57°35' E 011°38'4 8.3
2017-Oct-04 04:31N 57°39' E 011°42'4 7.9
2017-Oct-04 04:01N 57°41' E 011°48'2 4.6
2017-Oct-04 03:30N 57°41' E 011°52'1 2.1
2017-Oct-04 03:00N 57°41' E 011°50'4 8.9
2017-Oct-04 02:31N 57°39' E 011°43'510.5
2017-Oct-04 02:01N 57°35' E 011°37'510.1
2017-Oct-04 01:31N 57°36' E 011°28'4 7.6
2017-Oct-04 01:00N 57°39' E 011°22'5 9.0
2017-Oct-04 00:30N 57°42' E 011°17'510.0
2017-Oct-04 00:00N 57°45' E 011°10'611.1
2017-Oct-03 23:30N 57°50' E 011°04'611.8
2017-Oct-03 22:59N 57°54' E 010°56'510.5
2017-Oct-03 22:29N 57°57' E 010°47'511.3
2017-Oct-03 22:00N 57°56' E 010°37'612.0
2017-Oct-03 21:30N 57°56' E 010°25'612.8
2017-Oct-03 21:00N 57°56' E 010°14'4816.4
2017-Oct-03 18:05N 57°48' E 008°45'11314.9
2017-Oct-03 10:31N 56°03' E 007°29'013.5
2017-Oct-03 10:30N 56°03' E 007°29'714.6
2017-Oct-03 10:00N 55°56' E 007°26'714.7
2017-Oct-03 09:30N 55°48' E 007°23'914.9
2017-Oct-03 08:54N 55°39' E 007°20'514.2
2017-Oct-03 08:31N 55°34' E 007°19'713.7
2017-Oct-03 08:00N 55°27' E 007°19'713.5
2017-Oct-03 07:31N 55°20' E 007°20'713.9
2017-Oct-03 07:01N 55°14' E 007°21'714.1
2017-Oct-03 06:31N 55°07' E 007°23'714.4
2017-Oct-03 06:00N 54°59' E 007°22'714.2
2017-Oct-03 05:31N 54°52' E 007°22'714.2
2017-Oct-03 05:01N 54°45' E 007°23'714.3
2017-Oct-03 04:30N 54°38' E 007°23'3114.1
2017-Oct-03 02:19N 54°08' E 007°32'414.1
2017-Oct-03 02:01N 54°04' E 007°36'714.2
2017-Oct-03 01:30N 53°58' E 007°42'510.2
2017-Oct-03 01:00N 53°53' E 007°47'612.0
2017-Oct-03 00:30N 53°52' E 007°56'815.7
2017-Oct-03 00:00N 53°48' E 008°08'917.0
2017-Oct-02 23:30N 53°42' E 008°19'816.0
2017-Oct-02 23:01N 53°37' E 008°29'4 8.1
2017-Oct-02 22:30N 53°34' E 008°33'0 0.6
2017-Oct-02 22:00N 53°34' E 008°33'0 0.0
2017-Oct-02 21:30N 53°34' E 008°33'0 0.9
2017-Oct-02 21:01N 53°35' E 008°33'0 0.0
2017-Oct-02 20:31N 53°35' E 008°33'0 0.0
2017-Oct-02 19:59N 53°35' E 008°33'0 0.0
2017-Oct-02 19:29N 53°35' E 008°33'0 0.0
2017-Oct-02 18:59N 53°35' E 008°33'0 0.0
2017-Oct-02 18:26N 53°35' E 008°33'0 0.0
2017-Oct-02 17:59N 53°35' E 008°33'0 0.0
2017-Oct-02 17:29N 53°35' E 008°33'0 0.0
2017-Oct-02 16:59N 53°35' E 008°33'0 0.0
2017-Oct-02 16:29N 53°35' E 008°33'0 0.0
2017-Oct-02 15:59N 53°35' E 008°33'0 0.0
2017-Oct-02 15:29N 53°35' E 008°33'0 0.0
2017-Oct-02 14:59N 53°35' E 008°33'0 0.0
2017-Oct-02 14:29N 53°35' E 008°33'0 0.0
2017-Oct-02 13:59N 53°35' E 008°33'0 0.0
2017-Oct-02 13:29N 53°35' E 008°33'0 0.0
2017-Oct-02 12:59N 53°35' E 008°33'0 0.0
2017-Oct-02 12:29N 53°35' E 008°33'0 0.0
2017-Oct-02 11:59N 53°35' E 008°33'0 0.0
2017-Oct-02 11:26N 53°35' E 008°33'0 0.0
2017-Oct-02 10:59N 53°35' E 008°33'0 0.0
2017-Oct-02 10:29N 53°35' E 008°33'0 0.0
2017-Oct-02 09:56N 53°35' E 008°33'0 0.0
2017-Oct-02 09:29N 53°35' E 008°33'0 0.0
2017-Oct-02 08:59N 53°35' E 008°33'0 0.0
2017-Oct-02 08:29N 53°35' E 008°33'0 0.0
2017-Oct-02 07:59N 53°35' E 008°33'0 0.0
2017-Oct-02 07:29N 53°35' E 008°33'0 0.0
2017-Oct-02 06:59N 53°35' E 008°33'0 0.0
2017-Oct-02 06:29N 53°35' E 008°33'0 0.0
2017-Oct-02 05:59N 53°35' E 008°33'0 0.0
2017-Oct-02 05:29N 53°35' E 008°33'0 0.0
2017-Oct-02 04:59N 53°35' E 008°33'0 0.0
2017-Oct-02 04:29N 53°35' E 008°33'0 0.0
2017-Oct-02 03:59N 53°35' E 008°33'0 0.0
2017-Oct-02 03:29N 53°35' E 008°33'0 0.0
2017-Oct-02 02:59N 53°35' E 008°33'0 0.0
2017-Oct-02 02:29N 53°35' E 008°33'0 0.0
2017-Oct-02 01:59N 53°35' E 008°33'0 0.0
2017-Oct-02 01:29N 53°35' E 008°33'0 0.0
2017-Oct-02 00:59N 53°35' E 008°33'0 0.0
2017-Oct-02 00:29N 53°35' E 008°33'0 0.0
2017-Oct-01 23:59N 53°35' E 008°33'0 0.0
2017-Oct-01 23:28N 53°35' E 008°33'0 0.0
2017-Oct-01 22:58N 53°35' E 008°33'0 0.0
2017-Oct-01 22:28N 53°35' E 008°33'0 0.0
2017-Oct-01 21:58N 53°35' E 008°33'0 0.0
2017-Oct-01 21:28N 53°35' E 008°33'0 0.0
2017-Oct-01 20:58N 53°35' E 008°33'0 0.0
2017-Oct-01 20:28N 53°35' E 008°33'0 0.0
2017-Oct-01 19:58N 53°35' E 008°33'0 0.0
2017-Oct-01 19:28N 53°35' E 008°33'0 0.0
2017-Oct-01 18:58N 53°35' E 008°33'0 0.0
2017-Oct-01 18:28N 53°35' E 008°33'0 0.0
2017-Oct-01 17:58N 53°35' E 008°33'0 0.0
2017-Oct-01 17:28N 53°35' E 008°33'0 0.0
2017-Oct-01 16:59N 53°35' E 008°33'0 0.0
2017-Oct-01 16:28N 53°35' E 008°33'0 0.0
2017-Oct-01 15:58N 53°35' E 008°33'0 0.0
2017-Oct-01 15:28N 53°35' E 008°33'0 0.0
2017-Oct-01 14:58N 53°35' E 008°33'0 0.0
2017-Oct-01 14:28N 53°35' E 008°33'0 0.0
2017-Oct-01 13:58N 53°35' E 008°33'0 0.0
2017-Oct-01 13:28N 53°35' E 008°33'0 0.0
2017-Oct-01 12:58N 53°35' E 008°33'0 0.0
2017-Oct-01 12:28N 53°35' E 008°33'0 0.0
2017-Oct-01 11:58N 53°35' E 008°33'0 0.0
2017-Oct-01 11:28N 53°35' E 008°33'0 0.0
2017-Oct-01 10:58N 53°35' E 008°33'0 0.0
2017-Oct-01 10:28N 53°35' E 008°33'0 0.0
2017-Oct-01 09:58N 53°35' E 008°33'0 0.0
2017-Oct-01 09:25N 53°35' E 008°33'0 0.0
2017-Oct-01 08:58N 53°35' E 008°33'0 0.0
2017-Oct-01 08:28N 53°35' E 008°33'0 0.0
2017-Oct-01 07:58N 53°35' E 008°33'0 0.0
2017-Oct-01 07:28N 53°35' E 008°33'0 0.0
2017-Oct-01 06:58N 53°35' E 008°33'0 0.0
2017-Oct-01 06:28N 53°35' E 008°33'0 0.0
2017-Oct-01 05:58N 53°35' E 008°33'0 0.0
2017-Oct-01 05:28N 53°35' E 008°33'0 0.0
2017-Oct-01 04:58N 53°35' E 008°33'0 0.0
2017-Oct-01 04:28N 53°35' E 008°33'0 0.0
2017-Oct-01 03:58N 53°35' E 008°33'0 0.0
2017-Oct-01 03:28N 53°35' E 008°33'0 0.0
2017-Oct-01 02:58N 53°35' E 008°33'  

Dump ship's entire track history